Time;durP1;ratioP1;P1;durP2;ratioP2;P2;SDS_P1;SDS_P2;PMS_P1;PMS_P2;Temp;Humidity;BMP_temperature;BMP_pressure;BME280_temperature;BME280_humidity;BME280_pressure;Samples;Min_cycle;Max_cycle;Signal;HPM_P1;HPM_P2
2022/01/18 00:01:42;;;;;;;0.60;0.60;;;;;;;2.90;67.60;94605.56;2617985;54;20152;-70
2022/01/18 00:04:11;;;;;;;0.40;0.40;;;;;;;2.60;67.90;94570.91;2618094;47;20197;-70
2022/01/18 00:06:46;;;;;;;0.50;0.50;;;;;;;2.41;67.41;94540.41;2617727;54;20309;-70
2022/01/18 00:09:15;;;;;;;0.43;0.43;;;;;;;2.59;67.49;94569.47;2617943;47;20675;-70
2022/01/18 00:11:48;;;;;;;0.40;0.40;;;;;;;2.47;66.87;94563.13;2617946;54;20156;-70
2022/01/18 00:14:26;;;;;;;0.40;0.40;;;;;;;2.67;66.14;94558.75;2618054;47;20157;-70
2022/01/18 00:17:15;;;;;;;2.00;0.63;;;;;;;3.03;65.26;94588.16;2617961;54;20152;-70
2022/01/18 00:19:52;;;;;;;0.40;0.40;;;;;;;2.89;65.04;94615.28;2618084;47;20240;-70
2022/01/18 00:22:26;;;;;;;1.03;0.60;;;;;;;2.67;64.45;94558.75;2617871;54;20153;-71
2022/01/18 00:24:59;;;;;;;0.30;0.30;;;;;;;3.00;64.34;94611.06;2618018;54;20149;-70
2022/01/18 00:27:28;;;;;;;0.40;0.40;;;;;;;3.03;64.18;94627.34;2617822;47;20232;-70
2022/01/18 00:30:08;;;;;;;0.73;0.73;;;;;;;2.95;63.11;94612.13;2617979;47;20241;-70
2022/01/18 00:32:49;;;;;;;0.80;0.80;;;;;;;2.88;62.60;94607.50;2617780;54;20133;-70
2022/01/18 00:35:18;;;;;;;0.67;0.67;;;;;;;2.57;62.54;94563.03;2618230;48;20165;-70
2022/01/18 00:37:55;;;;;;;0.70;0.70;;;;;;;2.82;62.66;94608.63;2617844;54;20240;-70
2022/01/18 00:40:24;;;;;;;0.80;0.80;;;;;;;2.85;62.10;94620.66;2616748;54;20148;-69
2022/01/18 00:42:53;;;;;;;0.40;0.40;;;;;;;2.75;62.73;94572.50;2615863;54;20153;-69
2022/01/18 00:45:22;;;;;;;0.43;0.43;;;;;;;2.87;62.38;94603.97;2615846;46;20153;-69
2022/01/18 00:47:50;;;;;;;0.90;0.90;;;;;;;2.90;61.94;94608.38;2616277;54;20141;-70
2022/01/18 00:50:19;;;;;;;0.47;0.47;;;;;;;2.95;62.35;94621.25;2616355;54;20145;-69
2022/01/18 00:52:52;;;;;;;1.07;1.07;;;;;;;2.75;62.36;94620.03;2616531;47;20141;-70
2022/01/18 00:55:21;;;;;;;0.40;0.40;;;;;;;2.74;62.91;94635.34;2616388;54;20160;-69
2022/01/18 00:57:50;;;;;;;1.40;0.50;;;;;;;2.78;62.60;94639.13;2617639;39;20562;-70
2022/01/18 01:00:19;;;;;;;2.30;1.70;;;;;;;2.70;62.40;94647.03;2617902;54;20144;-69
2022/01/18 01:02:48;;;;;;;1.03;1.03;;;;;;;2.75;62.05;94657.13;2617864;47;20682;-69
2022/01/18 01:05:17;;;;;;;0.70;0.70;;;;;;;2.55;62.47;94647.50;2617692;54;20192;-69
2022/01/18 01:07:45;;;;;;;1.00;1.00;;;;;;;2.73;63.01;94662.59;2617780;46;20145;-69
2022/01/18 01:10:16;;;;;;;1.00;1.00;;;;;;;2.43;63.02;94647.47;2617799;54;20244;-69
2022/01/18 01:12:45;;;;;;;0.30;0.30;;;;;;;2.81;64.19;94687.53;2617808;47;20145;-69
2022/01/18 01:15:16;;;;;;;0.47;0.47;;;;;;;2.70;63.68;94647.03;2617766;47;20153;-69
2022/01/18 01:18:04;;;;;;;0.57;0.57;;;;;;;2.67;62.86;94647.50;2617675;47;20149;-69
2022/01/18 01:34:30;;;;;;;0.40;0.40;;;;;;;2.13;73.10;94732.91;2617768;47;20141;-68
2022/01/18 01:42:43;;;;;;;0.60;0.60;;;;;;;2.09;74.93;94749.41;2617775;54;20145;-70
2022/01/18 01:45:15;;;;;;;2.00;1.27;;;;;;;1.01;76.01;94677.34;2617494;49;20168;-69
2022/01/18 01:47:49;;;;;;;0.60;0.60;;;;;;;1.60;74.83;94728.00;2618032;39;20552;-69
2022/01/18 01:50:19;;;;;;;0.50;0.50;;;;;;;1.36;73.60;94694.34;2617635;54;20225;-70
2022/01/18 01:52:49;;;;;;;0.93;0.93;;;;;;;1.62;72.61;94714.91;2617787;47;20236;-69
2022/01/18 01:55:20;;;;;;;0.40;0.40;;;;;;;1.45;70.61;94700.47;2618443;47;20141;-69
2022/01/18 01:57:52;;;;;;;0.53;0.53;;;;;;;1.40;69.40;94689.03;2617785;47;20779;-69
2022/01/18 02:00:22;;;;;;;0.50;0.50;;;;;;;1.74;68.21;94720.56;2617600;54;20215;-69
2022/01/18 02:02:51;;;;;;;0.40;0.40;;;;;;;1.21;67.17;94705.88;2617649;47;20236;-70
2022/01/18 02:05:21;;;;;;;0.50;0.50;;;;;;;1.70;65.74;94745.41;2617652;47;20269;-70
2022/01/18 02:07:50;;;;;;;0.40;0.40;;;;;;;1.84;63.81;94785.44;2615728;47;20159;-70
2022/01/18 02:10:19;;;;;;;0.47;0.47;;;;;;;2.03;61.79;94771.38;2617062;47;20157;-70
2022/01/18 02:12:51;;;;;;;0.40;0.40;;;;;;;2.12;60.29;94781.75;2616370;47;20196;-70
2022/01/18 02:15:19;;;;;;;0.40;0.40;;;;;;;2.38;58.35;94795.97;2618199;54;20783;-70
2022/01/18 02:23:14;;;;;;;0.50;0.50;;;;;;;1.88;54.68;94826.88;2619405;47;20133;-70
2022/01/18 02:25:42;;;;;;;0.60;0.60;;;;;;;1.47;53.66;94806.66;2618810;47;20267;-70
2022/01/18 02:28:13;;;;;;;0.43;0.43;;;;;;;1.51;54.37;94815.28;2618603;47;20153;-71
2022/01/18 02:30:42;;;;;;;0.50;0.50;;;;;;;1.54;51.81;94822.47;2617587;39;20575;-69
2022/01/18 02:33:10;;;;;;;0.60;0.60;;;;;;;0.61;52.41;94728.25;2617958;39;20339;-70
2022/01/18 02:35:42;;;;;;;0.67;0.67;;;;;;;1.07;52.86;94830.44;2617563;54;20786;-70
2022/01/18 02:38:11;;;;;;;0.40;0.40;;;;;;;1.23;52.85;94847.59;2617543;54;20164;-68
2022/01/18 02:40:40;;;;;;;0.63;0.63;;;;;;;1.04;53.70;94823.25;2617708;54;20172;-69
2022/01/18 02:45:51;;;;;;;0.70;0.70;;;;;;;1.19;52.30;94859.19;2618656;47;20747;-69
2022/01/18 02:48:21;;;;;;;0.80;0.80;;;;;;;0.91;51.42;94859.97;2619086;54;20164;-70
2022/01/18 02:50:52;;;;;;;1.13;1.13;;;;;;;0.74;50.62;94874.06;2618785;47;20193;-70
2022/01/18 02:53:21;;;;;;;0.40;0.40;;;;;;;1.01;52.55;94869.78;2617952;47;20227;-71
2022/01/18 02:55:52;;;;;;;0.40;0.40;;;;;;;0.82;51.32;94886.53;2617584;54;20148;-70
2022/01/18 02:58:26;;;;;;;1.00;0.90;;;;;;;0.54;51.67;94862.94;2617316;54;20158;-69
2022/01/18 03:03:40;;;;;;;0.80;0.80;;;;;;;0.46;50.82;94892.97;2617501;47;20147;-69
2022/01/18 03:06:11;;;;;;;0.50;0.50;;;;;;;0.23;51.64;94823.03;2617380;47;20198;-69
2022/01/18 03:08:40;;;;;;;0.83;0.83;;;;;;;0.58;50.53;94910.59;2617448;47;20659;-69
2022/01/18 03:11:09;;;;;;;0.43;0.43;;;;;;;0.29;50.50;94865.97;2617229;47;20159;-70
2022/01/18 03:13:37;;;;;;;0.40;0.40;;;;;;;0.49;51.36;94911.31;2617323;54;20235;-71
2022/01/18 03:16:07;;;;;;;0.87;0.87;;;;;;;0.33;50.48;94908.06;2617178;54;20231;-70
2022/01/18 03:18:35;;;;;;;0.40;0.40;;;;;;;0.61;51.76;94920.56;2617277;47;20148;-70
2022/01/18 03:21:04;;;;;;;1.33;0.70;;;;;;;0.31;50.59;94924.63;2617235;54;20144;-70
2022/01/18 03:23:36;;;;;;;0.50;0.50;;;;;;;0.30;52.22;94925.94;2617345;47;20137;-70
2022/01/18 03:26:14;;;;;;;0.77;0.77;;;;;;;0.13;51.34;94917.00;2617161;54;20156;-69
2022/01/18 03:28:40;;;;;;;0.50;0.50;;;;;;;-0.01;51.79;94911.09;2617315;54;20146;-71
2022/01/18 03:31:09;;;;;;;0.60;0.60;;;;;;;-0.22;52.94;94892.09;2617109;54;20716;-69
2022/01/18 03:33:38;;;;;;;0.60;0.60;;;;;;;0.02;52.04;94960.03;2617292;47;20239;-69
2022/01/18 03:36:08;;;;;;;0.40;0.40;;;;;;;0.35;52.27;94974.34;2617674;39;20559;-69
2022/01/18 03:38:39;;;;;;;0.30;0.30;;;;;;;0.36;52.73;94959.13;2617249;54;20272;-69
2022/01/18 03:41:08;;;;;;;0.93;0.93;;;;;;;-0.13;51.15;94958.22;2617613;54;20795;-69
2022/01/18 03:43:38;;;;;;;0.50;0.50;;;;;;;0.55;50.89;94972.34;2618673;39;20616;-69
2022/01/18 03:46:06;;;;;;;0.50;0.50;;;;;;;0.73;53.41;94973.69;2618058;47;20208;-69
2022/01/18 03:48:38;;;;;;;0.57;0.57;;;;;;;0.51;49.98;94980.41;2618586;39;20573;-69
2022/01/18 03:51:08;;;;;;;0.50;0.50;;;;;;;0.82;51.94;94970.16;2618035;54;20151;-70
2022/01/18 03:53:40;;;;;;;0.40;0.40;;;;;;;0.17;50.19;94951.44;2618168;54;20148;-69
2022/01/18 03:56:09;;;;;;;0.30;0.30;;;;;;;0.41;51.85;95002.66;2618049;47;20247;-69
2022/01/18 03:58:37;;;;;;;0.67;0.67;;;;;;;0.30;50.68;94998.38;2618046;47;20151;-70
2022/01/18 04:01:06;;;;;;;0.73;0.73;;;;;;;0.21;51.50;94992.78;2617906;47;20757;-70
2022/01/18 04:03:35;;;;;;;1.27;1.23;;;;;;;0.42;51.42;95009.72;2618221;47;20158;-70
2022/01/18 04:06:04;;;;;;;0.57;0.57;;;;;;;-0.06;50.67;94979.66;2618379;47;20187;-72
2022/01/18 04:08:33;;;;;;;0.40;0.40;;;;;;;0.60;51.67;95027.06;2618113;47;20148;-72
2022/01/18 04:11:04;;;;;;;0.73;0.73;;;;;;;0.34;49.20;95020.25;2617917;54;20269;-71
2022/01/18 04:13:32;;;;;;;0.47;0.47;;;;;;;0.91;51.87;94988.97;2618112;47;20199;-70
2022/01/18 04:16:01;;;;;;;0.93;0.93;;;;;;;1.37;48.38;95033.47;2617863;47;20244;-70
2022/01/18 04:18:31;;;;;;;28.60;1.43;;;;;;;1.03;48.25;95062.38;2617965;54;20172;-70
2022/01/18 04:29:07;;;;;;;0.57;0.57;;;;;;;-0.13;52.13;95013.16;2617400;54;20161;-71
2022/01/18 04:31:36;;;;;;;0.60;0.60;;;;;;;0.40;50.44;95059.72;2617904;47;20650;-69
2022/01/18 04:34:05;;;;;;;0.40;0.40;;;;;;;0.34;50.14;95075.97;2617694;47;20907;-70
2022/01/18 04:36:34;;;;;;;0.47;0.47;;;;;;;0.62;50.84;95094.13;2617824;54;20234;-69
2022/01/18 04:39:03;;;;;;;0.70;0.70;;;;;;;0.49;49.98;95098.03;2617965;47;20147;-69
2022/01/18 04:41:35;;;;;;;0.53;0.53;;;;;;;0.60;51.28;95113.47;2617851;47;20152;-69
2022/01/18 04:49:34;;;;;;;0.60;0.60;;;;;;;0.25;50.11;95140.75;2618271;39;20531;-70
2022/01/18 04:52:03;;;;;;;0.43;0.43;;;;;;;0.37;50.36;95135.38;2617543;47;20151;-71
2022/01/18 04:54:31;;;;;;;0.40;0.40;;;;;;;0.68;50.90;95139.19;2617633;47;20168;-72
2022/01/18 04:59:43;;;;;;;0.50;0.50;;;;;;;0.38;50.78;95154.31;2617551;47;20151;-71
2022/01/18 05:02:12;;;;;;;0.60;0.60;;;;;;;0.06;50.14;95130.22;2617397;47;20196;-70
2022/01/18 05:04:43;;;;;;;0.40;0.40;;;;;;;0.22;50.48;95122.41;2617328;54;20235;-72
2022/01/18 05:07:13;;;;;;;0.43;0.43;;;;;;;0.12;50.26;95086.13;2617675;47;20195;-71
2022/01/18 05:09:43;;;;;;;0.90;0.90;;;;;;;0.94;50.12;95151.63;2617530;47;20159;-70
2022/01/18 05:12:21;;;;;;;0.30;0.30;;;;;;;0.47;50.06;95145.25;2617818;39;20581;-70
2022/01/18 05:14:50;;;;;;;0.60;0.60;;;;;;;0.46;49.77;95148.63;2618040;39;20566;-69
2022/01/18 05:17:37;;;;;;;0.60;0.60;;;;;;;1.12;51.52;95152.97;2617639;47;20671;-70
2022/01/18 05:20:37;;;;;;;0.40;0.40;;;;;;;0.84;49.20;95167.56;2617429;54;20158;-69
2022/01/18 05:23:05;;;;;;;1.10;1.10;;;;;;;0.41;51.44;95163.56;2617385;47;20256;-70
2022/01/18 05:25:34;;;;;;;0.70;0.70;;;;;;;0.05;50.78;95172.56;2617443;47;20147;-68
2022/01/18 05:28:08;;;;;;;0.50;0.50;;;;;;;-0.20;52.04;95140.00;2617651;54;20158;-68
2022/01/18 05:30:37;;;;;;;1.07;0.90;;;;;;;-0.02;50.94;95183.22;2617671;54;20136;-71
2022/01/18 05:33:06;;;;;;;1.07;1.07;;;;;;;0.04;52.33;95190.59;2617511;54;20251;-70
2022/01/18 05:35:35;;;;;;;0.50;0.50;;;;;;;-0.24;50.50;95117.41;2617629;54;20160;-71
2022/01/18 05:38:05;;;;;;;0.70;0.70;;;;;;;0.45;51.26;95191.72;2617540;54;20762;-70
2022/01/18 05:40:33;;;;;;;0.40;0.40;;;;;;;0.20;51.21;95164.03;2617700;54;20155;-69
2022/01/18 05:43:05;;;;;;;0.43;0.43;;;;;;;0.57;50.84;95201.78;2617311;47;20647;-70
2022/01/18 05:45:34;;;;;;;0.33;0.33;;;;;;;0.65;50.18;95187.75;2617717;47;20155;-69
2022/01/18 05:48:02;;;;;;;1.20;1.20;;;;;;;0.35;49.92;95170.13;2617493;54;20148;-69
2022/01/18 05:50:31;;;;;;;0.50;0.50;;;;;;;-0.32;51.90;95133.47;2617514;54;20160;-70
2022/01/18 05:53:00;;;;;;;5.53;1.27;;;;;;;0.35;52.53;95206.34;2617692;54;20156;-68
2022/01/18 05:55:29;;;;;;;0.50;0.50;;;;;;;0.34;50.83;95181.84;2617746;47;20234;-71
2022/01/18 05:57:57;;;;;;;0.70;0.70;;;;;;;0.64;52.96;95220.47;2617629;54;20148;-70
2022/01/18 06:00:30;;;;;;;0.80;0.80;;;;;;;1.17;50.54;95218.19;2618097;39;20703;-70
2022/01/18 06:03:11;;;;;;;0.50;0.50;;;;;;;1.42;48.67;95205.50;2617479;54;20671;-70
2022/01/18 06:08:27;;;;;;;0.30;0.30;;;;;;;1.64;49.17;95231.53;2616664;47;20171;-69
2022/01/18 06:10:56;;;;;;;0.30;0.30;;;;;;;1.22;49.18;95251.41;2617578;54;20182;-68
2022/01/18 06:13:24;;;;;;;0.30;0.30;;;;;;;0.73;51.13;95243.38;2617535;54;20471;-70
2022/01/18 06:15:57;;;;;;;0.87;0.87;;;;;;;-0.62;49.80;95086.50;2618217;54;20154;-76
2022/01/18 06:18:25;;;;;;;0.83;0.83;;;;;;;0.60;52.02;95264.00;2613331;47;20667;-66
2022/01/18 06:20:54;;;;;;;0.30;0.30;;;;;;;0.48;50.55;95258.19;2616532;54;20763;-65
2022/01/18 06:23:24;;;;;;;0.50;0.50;;;;;;;0.29;51.59;95222.56;2616523;54;20176;-68
2022/01/18 06:25:54;;;;;;;0.50;0.50;;;;;;;0.40;51.04;95243.63;2617498;47;20136;-66
2022/01/18 06:28:29;;;;;;;0.90;0.90;;;;;;;0.76;49.50;95270.09;2617538;54;20235;-69
2022/01/18 06:31:01;;;;;;;0.40;0.40;;;;;;;0.86;49.97;95273.69;2612441;54;20670;-69
2022/01/18 06:33:30;;;;;;;0.40;0.40;;;;;;;0.89;51.51;95275.31;2608908;47;20151;-69
2022/01/18 06:35:59;;;;;;;0.50;0.50;;;;;;;0.98;49.77;95278.16;2612375;47;20145;-70
2022/01/18 06:38:27;;;;;;;0.47;0.47;;;;;;;0.66;50.48;95236.59;2615888;54;20766;-68
2022/01/18 06:40:56;;;;;;;0.60;0.60;;;;;;;0.81;50.61;95260.75;2617172;47;20163;-66
2022/01/18 06:43:25;;;;;;;0.50;0.50;;;;;;;1.12;50.47;95278.50;2617368;47;20133;-66
2022/01/18 06:45:53;;;;;;;0.60;0.60;;;;;;;1.01;49.77;95265.84;2617392;54;20183;-66
2022/01/18 06:48:25;;;;;;;0.43;0.43;;;;;;;0.56;50.75;95252.53;2617147;47;20667;-66
2022/01/18 06:50:53;;;;;;;0.40;0.40;;;;;;;0.78;51.92;95245.19;2617328;47;20276;-66
2022/01/18 06:53:22;;;;;;;0.70;0.70;;;;;;;0.79;51.36;95261.34;2617486;47;20183;-69
2022/01/18 06:55:53;;;;;;;1.80;1.80;;;;;;;0.63;50.96;95235.72;2617579;54;20187;-67
2022/01/18 06:58:23;;;;;;;1.07;1.07;;;;;;;0.78;51.94;95242.38;2617670;47;20160;-63
2022/01/18 07:00:52;;;;;;;0.53;0.53;;;;;;;0.83;50.07;95292.31;2618075;47;20239;-68
2022/01/18 07:03:21;;;;;;;0.60;0.60;;;;;;;0.95;50.26;95282.13;2617317;47;20145;-67
2022/01/18 07:05:52;;;;;;;0.77;0.77;;;;;;;1.10;49.37;95288.78;2617442;54;20180;-67
2022/01/18 07:08:21;;;;;;;2.27;2.07;;;;;;;0.76;49.64;95281.25;2615990;47;20223;-68
2022/01/18 07:10:49;;;;;;;0.50;0.50;;;;;;;1.10;50.78;95317.41;2614950;54;20235;-70
2022/01/18 07:13:18;;;;;;;0.50;0.50;;;;;;;1.62;49.42;95311.63;2616408;47;20144;-69
2022/01/18 07:15:47;;;;;;;0.63;0.63;;;;;;;2.38;49.53;95316.63;2617534;54;20145;-69
2022/01/18 07:18:16;;;;;;;0.53;0.53;;;;;;;1.75;46.83;95314.03;2618038;54;20173;-68
2022/01/18 07:20:45;;;;;;;0.60;0.60;;;;;;;1.15;48.95;95291.31;2617980;54;20153;-66
2022/01/18 07:23:17;;;;;;;0.47;0.47;;;;;;;1.39;49.09;95320.34;2618035;54;20141;-67
2022/01/18 07:25:48;;;;;;;0.70;0.70;;;;;;;1.60;50.26;95336.59;2614839;54;20156;-69
2022/01/18 07:28:18;;;;;;;0.93;0.93;;;;;;;1.26;49.17;95343.78;2615273;47;20156;-73
2022/01/18 07:30:48;;;;;;;0.40;0.40;;;;;;;1.53;49.10;95338.19;2615981;54;20171;-70
2022/01/18 07:33:17;;;;;;;0.60;0.60;;;;;;;1.15;48.39;95327.59;2617186;47;20200;-69
2022/01/18 07:35:46;;;;;;;0.50;0.50;;;;;;;1.16;49.37;95350.63;2617770;47;20149;-70
2022/01/18 07:38:22;;;;;;;0.50;0.50;;;;;;;1.23;47.76;95227.03;2618048;47;20687;-70
2022/01/18 07:40:53;;;;;;;0.73;0.73;;;;;;;1.82;48.77;95335.50;2616613;47;20156;-69
2022/01/18 07:43:22;;;;;;;0.50;0.50;;;;;;;1.39;49.59;95329.47;2618113;47;20145;-70
2022/01/18 07:45:52;;;;;;;0.60;0.60;;;;;;;1.70;48.67;95307.38;2618028;47;20938;-70
2022/01/18 07:48:23;;;;;;;0.57;0.57;;;;;;;1.99;47.67;95354.22;2616291;47;20248;-69
2022/01/18 07:50:56;;;;;;;0.60;0.60;;;;;;;2.06;49.08;95320.53;2616658;54;20145;-70
2022/01/18 07:53:29;;;;;;;0.60;0.60;;;;;;;2.84;46.56;95350.03;2617194;54;20149;-71
2022/01/18 07:56:00;;;;;;;1.07;1.03;;;;;;;1.84;47.51;95352.41;2617810;47;20153;-70
2022/01/18 07:58:29;;;;;;;0.57;0.57;;;;;;;1.93;48.12;95362.88;2617805;47;20160;-69
2022/01/18 08:01:00;;;;;;;0.80;0.80;;;;;;;1.72;47.80;95351.50;2616775;47;20667;-67
2022/01/18 08:03:29;;;;;;;0.60;0.60;;;;;;;1.64;48.62;95326.47;2618005;47;20153;-69
2022/01/18 08:05:58;;;;;;;0.50;0.50;;;;;;;2.03;48.41;95376.88;2617491;47;20227;-68
2022/01/18 08:08:29;;;;;;;0.30;0.30;;;;;;;1.94;48.62;95363.59;2617995;47;20133;-67
2022/01/18 08:10:58;;;;;;;0.50;0.50;;;;;;;1.96;47.85;95367.28;2617576;54;20156;-70
2022/01/18 08:13:36;;;;;;;1.23;1.03;;;;;;;1.63;48.39;95368.94;2617854;46;20149;-69
2022/01/18 08:16:23;;;;;;;0.50;0.50;;;;;;;1.40;48.58;95347.69;2617903;54;20157;-69
2022/01/18 08:18:52;;;;;;;0.80;0.80;;;;;;;1.46;49.42;95380.19;2617906;54;20184;-69
2022/01/18 08:21:21;;;;;;;0.50;0.50;;;;;;;1.73;49.12;95387.22;2617768;47;20699;-70
2022/01/18 08:23:53;;;;;;;0.50;0.50;;;;;;;1.70;48.50;95351.34;2617426;54;20256;-70
2022/01/18 08:26:22;;;;;;;0.50;0.50;;;;;;;1.28;47.92;95343.94;2617157;47;20645;-69
2022/01/18 08:28:51;;;;;;;0.40;0.40;;;;;;;1.51;49.39;95373.56;2617587;54;20149;-69
2022/01/18 08:31:19;;;;;;;0.80;0.80;;;;;;;2.25;50.47;95386.94;2617810;39;20502;-69
2022/01/18 08:33:48;;;;;;;0.83;0.77;;;;;;;2.68;47.50;95374.03;2617900;54;20137;-68
2022/01/18 08:36:17;;;;;;;0.90;0.90;;;;;;;2.18;47.35;95378.69;2618300;54;20224;-69
2022/01/18 08:38:46;;;;;;;0.40;0.40;;;;;;;2.18;46.38;95376.63;2617449;47;20156;-69
2022/01/18 08:41:18;;;;;;;0.63;0.63;;;;;;;2.38;45.84;95361.34;2615631;47;20273;-70
2022/01/18 08:43:47;;;;;;;0.30;0.30;;;;;;;2.67;45.38;95380.94;2616387;47;20154;-72
2022/01/18 08:46:15;;;;;;;0.50;0.50;;;;;;;2.30;45.88;95377.53;2616750;47;20280;-69
2022/01/18 08:48:45;;;;;;;0.30;0.30;;;;;;;2.73;45.83;95403.75;2617326;47;20149;-70
2022/01/18 08:51:14;;;;;;;0.70;0.70;;;;;;;1.92;44.66;95347.41;2616723;47;20141;-70
2022/01/18 08:53:48;;;;;;;3.20;2.73;;;;;;;2.20;45.42;95379.56;2617982;54;20137;-69
2022/01/18 08:56:20;;;;;;;0.50;0.50;;;;;;;2.07;44.76;95389.06;2616538;54;20152;-70
2022/01/18 08:59:05;;;;;;;;;;;;;;;;;;;;;
2022/01/18 09:01:35;;;;;;;0.70;0.70;;;;;;;1.63;46.20;95402.47;2616570;47;20420;-74
2022/01/18 09:04:04;;;;;;;0.40;0.40;;;;;;;1.95;46.26;95416.09;2619322;47;20657;-72
2022/01/18 09:06:32;;;;;;;0.50;0.50;;;;;;;2.21;45.49;95425.00;2617134;47;20211;-73
2022/01/18 09:09:01;;;;;;;0.50;0.50;;;;;;;2.20;46.76;95420.72;2616103;47;20153;-71
2022/01/18 09:11:32;;;;;;;1.60;0.83;;;;;;;2.47;46.06;95419.31;2615412;54;20157;-71
2022/01/18 09:14:01;;;;;;;0.40;0.40;;;;;;;1.87;45.83;95367.28;2617161;47;20198;-72
2022/01/18 09:16:29;;;;;;;0.30;0.30;;;;;;;1.24;46.53;95284.28;2617693;54;20148;-71
2022/01/18 09:18:58;;;;;;;0.40;0.40;;;;;;;2.39;45.43;95385.19;2617806;47;20152;-71
2022/01/18 09:21:30;;;;;;;0.50;0.50;;;;;;;2.88;44.89;95411.13;2617870;39;20518;-71
2022/01/18 09:23:59;;;;;;;0.77;0.77;;;;;;;2.57;44.33;95399.78;2617772;47;20141;-72
2022/01/18 09:26:27;;;;;;;0.63;0.63;;;;;;;2.30;45.37;95419.47;2617660;47;20149;-69
2022/01/18 09:28:58;;;;;;;0.50;0.50;;;;;;;2.53;45.99;95384.75;2617485;54;20145;-68
2022/01/18 09:31:28;;;;;;;0.60;0.60;;;;;;;2.21;45.29;95419.41;2617525;54;20140;-68
2022/01/18 09:33:57;;;;;;;0.80;0.80;;;;;;;1.88;46.78;95403.00;2617691;47;20149;-69
2022/01/18 09:36:25;;;;;;;0.60;0.60;;;;;;;2.23;46.78;95391.63;2617539;54;20145;-71
2022/01/18 09:38:54;;;;;;;0.57;0.57;;;;;;;2.25;45.64;95411.34;2617635;54;20153;-70
2022/01/18 09:41:28;;;;;;;0.47;0.47;;;;;;;2.09;46.48;95380.84;2617552;49;20152;-71
2022/01/18 09:44:00;;;;;;;0.47;0.47;;;;;;;2.35;46.32;95392.53;2618139;39;20542;-70
2022/01/18 09:46:29;;;;;;;0.77;0.77;;;;;;;2.60;45.04;95364.31;2617521;54;20269;-70
2022/01/18 09:49:00;;;;;;;2.20;1.13;;;;;;;2.42;45.78;95358.13;2617598;47;20153;-69
2022/01/18 09:51:29;;;;;;;0.40;0.40;;;;;;;2.48;45.91;95387.25;2616991;47;20676;-70
2022/01/18 09:53:58;;;;;;;0.50;0.50;;;;;;;2.38;46.58;95375.31;2615427;47;20700;-69
2022/01/18 09:56:27;;;;;;;2.87;0.70;;;;;;;1.94;46.61;95305.69;2615702;54;20264;-69
2022/01/18 09:58:59;;;;;;;0.40;0.40;;;;;;;2.96;46.10;95374.63;2617608;54;20164;-71
2022/01/18 10:01:29;;;;;;;0.50;0.50;;;;;;;2.80;45.76;95397.28;2616526;54;20153;-72
2022/01/18 10:04:17;;;;;;;0.40;0.40;;;;;;;2.50;47.04;95389.47;2617564;47;20645;-70
2022/01/18 10:06:48;;;;;;;0.60;0.60;;;;;;;2.03;48.47;95410.41;2616927;47;20181;-71
2022/01/18 10:09:19;;;;;;;0.70;0.70;;;;;;;2.19;47.49;95385.75;2617546;54;20148;-70
2022/01/18 10:12:03;;;;;;;0.40;0.40;;;;;;;2.85;47.33;95401.88;2616961;54;20247;-69
2022/01/18 10:14:35;;;;;;;0.60;0.60;;;;;;;1.99;46.74;95399.66;2617637;54;20149;-70
2022/01/18 10:17:05;;;;;;;0.50;0.50;;;;;;;1.64;48.05;95409.53;2617522;47;20137;-69
2022/01/18 10:19:36;;;;;;;0.50;0.50;;;;;;;2.34;48.90;95402.22;2617623;54;20168;-70
2022/01/18 10:22:14;;;;;;;0.37;0.37;;;;;;;2.66;47.39;95407.44;2617568;47;20141;-70
2022/01/18 10:24:43;;;;;;;0.37;0.37;;;;;;;2.33;47.73;95406.34;2617693;54;20136;-70
2022/01/18 10:27:15;;;;;;;0.50;0.50;;;;;;;2.01;47.75;95346.72;2617365;47;20668;-72
2022/01/18 10:29:49;;;;;;;1.10;1.10;;;;;;;2.48;46.49;95389.31;2617561;46;20178;-71
2022/01/18 10:32:23;;;;;;;0.50;0.50;;;;;;;2.93;44.53;95418.50;2617543;46;20145;-71
2022/01/18 10:37:36;;;;;;;0.87;0.87;;;;;;;2.21;46.88;95414.56;2617995;39;20890;-73
2022/01/18 10:40:10;;;;;;;0.50;0.50;;;;;;;2.28;45.53;95382.22;2617443;54;20168;-71
2022/01/18 10:42:46;;;;;;;0.30;0.30;;;;;;;1.95;46.43;95360.22;2617583;47;20184;-70
2022/01/18 10:45:26;;;;;;;1.93;1.13;;;;;;;2.57;47.29;95393.47;2617825;39;20562;-69
2022/01/18 10:47:59;;;;;;;0.30;0.30;;;;;;;2.26;46.09;95366.03;2617477;54;20163;-70
2022/01/18 10:50:32;;;;;;;0.40;0.40;;;;;;;2.43;45.81;95393.88;2616084;47;20161;-72
2022/01/18 10:53:13;;;;;;;0.60;0.60;;;;;;;2.03;45.53;95349.69;2615045;54;20164;-70
2022/01/18 10:55:43;;;;;;;6.13;1.00;;;;;;;1.95;47.00;95398.59;2615644;46;20144;-69
2022/01/18 10:58:13;;;;;;;0.50;0.50;;;;;;;2.38;46.61;95380.19;2616225;47;20252;-70
2022/01/18 11:00:45;;;;;;;0.50;0.50;;;;;;;2.97;44.97;95373.28;2615840;54;20145;-69
2022/01/18 11:03:14;;;;;;;5.60;1.07;;;;;;;2.86;44.07;95399.81;2616120;47;20157;-71
2022/01/18 11:05:46;;;;;;;0.60;0.60;;;;;;;2.62;45.13;95409.19;2616437;54;20199;-71
2022/01/18 11:08:18;;;;;;;0.30;0.30;;;;;;;2.36;45.19;95382.81;2616383;47;21136;-71
2022/01/18 11:10:50;;;;;;;0.97;0.97;;;;;;;2.25;44.22;95386.19;2616056;54;20208;-70
2022/01/18 11:13:23;;;;;;;0.50;0.50;;;;;;;2.34;45.17;95405.03;2614556;54;20153;-69
2022/01/18 11:16:03;;;;;;;0.33;0.33;;;;;;;2.57;44.61;95382.28;2616278;54;20192;-71
2022/01/18 11:18:36;;;;;;;0.40;0.40;;;;;;;2.75;45.05;95394.78;2616337;47;20156;-70
2022/01/18 11:21:08;;;;;;;0.50;0.50;;;;;;;2.68;44.53;95390.06;2616328;54;20160;-70
2022/01/18 11:23:37;;;;;;;0.60;0.60;;;;;;;2.46;44.49;95384.31;2616058;54;20164;-70
2022/01/18 11:26:06;;;;;;;1.10;1.10;;;;;;;2.20;46.01;95390.00;2616413;47;20142;-69
2022/01/18 11:28:37;;;;;;;0.57;0.57;;;;;;;2.12;46.48;95379.69;2617427;54;20171;-69
2022/01/18 11:31:10;;;;;;;0.53;0.53;;;;;;;2.25;45.68;95353.38;2617216;54;20145;-70
2022/01/18 11:33:43;;;;;;;0.30;0.30;;;;;;;2.53;44.67;95410.66;2617247;54;20145;-70
2022/01/18 11:36:15;;;;;;;0.73;0.73;;;;;;;2.30;44.61;95399.16;2617104;47;20204;-71
2022/01/18 11:38:49;;;;;;;1.60;1.23;;;;;;;2.21;45.27;95388.66;2617597;39;20576;-71
2022/01/18 11:41:23;;;;;;;1.03;1.03;;;;;;;2.26;45.59;95394.00;2617233;47;20167;-71
2022/01/18 11:43:54;;;;;;;0.50;0.50;;;;;;;2.30;45.61;95385.19;2617266;54;20157;-71
2022/01/18 11:46:29;;;;;;;0.93;0.93;;;;;;;2.40;44.64;95344.72;2615896;54;20172;-71
2022/01/18 11:49:04;;;;;;;0.40;0.40;;;;;;;2.93;44.50;95390.53;2617184;47;20144;-70
2022/01/18 11:51:43;;;;;;;0.77;0.77;;;;;;;2.49;44.19;95388.00;2617186;47;20223;-71
2022/01/18 11:54:26;;;;;;;0.40;0.40;;;;;;;1.99;44.65;95335.41;2617170;47;20225;-70
2022/01/18 11:56:55;;;;;;;0.50;0.50;;;;;;;2.65;44.12;95389.19;2615633;54;20152;-71
2022/01/18 11:59:28;;;;;;;0.40;0.40;;;;;;;2.54;43.48;95359.00;2616832;47;20239;-71
2022/01/18 12:02:02;;;;;;;0.97;0.97;;;;;;;2.55;43.30;95382.13;2616997;47;20168;-71
2022/01/18 12:05:06;;;;;;;4.23;1.00;;;;;;;2.45;45.00;95388.44;2617982;47;20151;-71
2022/01/18 12:08:05;;;;;;;0.40;0.40;;;;;;;2.61;43.37;95349.72;2618026;52;20137;-70
2022/01/18 12:10:50;;;;;;;0.40;0.40;;;;;;;2.48;46.03;95333.38;2616736;47;20200;-71
2022/01/18 12:13:44;;;;;;;0.50;0.50;;;;;;;2.70;43.89;95379.78;2617390;54;20145;-71
2022/01/18 12:16:29;;;;;;;0.87;0.87;;;;;;;2.22;45.13;95348.97;2617339;54;20149;-68
2022/01/18 12:19:09;;;;;;;0.57;0.57;;;;;;;2.31;44.05;95339.88;2617923;47;20743;-69
2022/01/18 12:21:45;;;;;;;0.60;0.60;;;;;;;1.78;43.94;95294.03;2617950;47;20252;-70
2022/01/18 12:24:20;;;;;;;0.67;0.67;;;;;;;2.30;43.29;95376.78;2617916;54;20153;-70
2022/01/18 12:26:59;;;;;;;3.40;0.77;;;;;;;1.62;43.82;95345.88;2617619;47;20765;-70
2022/01/18 12:29:49;;;;;;;0.50;0.50;;;;;;;1.83;44.63;95344.59;2617824;54;20286;-69
2022/01/18 12:35:30;;;;;;;0.60;0.60;;;;;;;2.95;43.80;95359.16;2617319;39;20582;-70
2022/01/18 12:37:59;;;;;;;0.50;0.50;;;;;;;2.71;43.99;95344.91;2617834;47;20165;-70
2022/01/18 12:40:31;;;;;;;0.73;0.73;;;;;;;2.13;43.69;95307.78;2617512;54;20163;-68
2022/01/18 12:45:47;;;;;;;0.63;0.63;;;;;;;2.00;43.92;95331.28;2617892;47;20673;-69
2022/01/18 12:48:16;;;;;;;0.87;0.87;;;;;;;2.13;43.32;95353.22;2617887;47;20152;-68
2022/01/18 12:50:50;;;;;;;0.40;0.40;;;;;;;1.83;44.31;95323.00;2617840;47;20273;-69
2022/01/18 12:53:21;;;;;;;0.60;0.60;;;;;;;1.92;43.48;95349.47;2617638;54;20678;-68
2022/01/18 12:55:54;;;;;;;0.40;0.40;;;;;;;2.12;44.58;95354.53;2618152;47;20168;-69
2022/01/18 12:58:25;;;;;;;0.63;0.63;;;;;;;1.39;44.62;95272.91;2589344;47;21040;-69
2022/01/18 13:00:56;;;;;;;1.40;0.60;;;;;;;2.15;44.38;95338.66;2617892;54;20141;-68
2022/01/18 13:03:29;;;;;;;0.50;0.50;;;;;;;1.93;44.94;95323.75;2618292;39;20539;-69